Schluersburg, Missouri
Current Conditions -  °F | °C
As of 7:15 AM on Sunday 23 Nov 2014 (Local Time) from KFYG Reporting Station
Broken Clouds Broken Clouds  
Wind Chill: 54°   Ceiling: 2100
Heat Index: 54°   Visibility: 10mi
Dew Point: 48°   Wind: 10mph
Humidity: 82%   Direction: 120°ESE
Pressure: 29.68"   Gusts: NA
Location:  38.6039°N, 90.8829°W
Report Text: KFYG 231315Z AUTO 12009KT 10SM BKN021 BKN090 12/09 A2968 RMK AO2
Loading
Personal Weather Stations






























Interactive Weather Map New forecast layout! Learn more

10-Day Weather Forecast

Advertisements
Track Severe Weather on mobile